Nearby METAR Reports

 

KBGR - Bangor, Maine, USA
Distance from station: E 5mi, 8km
Updated: Mon, 06-Jul-2020 3:53pm EDT
Partly cloudy
Partly cloudy
 Wind from N
Wind: N 7 mph , 11 km/h
Temperature: 77°F , 25°C
Dew Point: 55°F , 13°C
Humidity: 47%
Barometer: 30.08 inHg , 1018.6 hPa
Clouds: Partly cloudy
Visibility: 10 miles , 16 km
Cloud details: Few Clouds 4800 ft
Partly cloudy 6500 ft
2020/07/06 19:53 KBGR 061953Z 36006KT 10SM FEW048 SCT065 25/13 A3008 RMK AO2 SLP183 T02500128
KBHB - Bar Harbor, Maine, USA
Distance from station: SE 37mi, 59km
Updated: Mon, 06-Jul-2020 3:56pm EDT
Clear
Clear
 Wind from SW
Wind: SW 9 mph , 15 km/h
Temperature: 70°F , 21°C
Dew Point: 61°F , 16°C
Humidity: 73%
Barometer: 30.10 inHg , 1019.3 hPa
Clouds: Clear
Visibility: 10 miles , 16 km
2020/07/06 19:56 KBHB 061956Z AUTO 22008KT 10SM CLR 21/16 A3010 RMK AO2 SLP193 T02060156
 
KWVL - Waterville, Maine, USA
Distance from station: WSW 42mi, 68km
Updated: Mon, 06-Jul-2020 3:56pm EDT
Few Clouds
Few Clouds
 Wind from calm
Wind: Calm
Temperature: 75°F , 24°C
Dew Point: 61°F , 16°C
Humidity: 61%
Barometer: 30.06 inHg , 1017.9 hPa
Clouds: Few Clouds
Visibility: 10 miles , 16 km
Cloud details: Few Clouds 8000 ft
2020/07/06 19:56 KWVL 061956Z AUTO 00000KT 10SM FEW080 24/16 A3006 RMK AO2 SLP204 T02440156
KRKD - Rockland/Knox, Maine, USA
Distance from station: S 52mi, 84km
Updated: Mon, 06-Jul-2020 3:56pm EDT
Clear
Clear
 Wind from S
Wind: S 9 mph , 15 km/h
Temperature: 64°F , 18°C
Dew Point: 57°F , 14°C
Humidity: 78%
Barometer: 30.11 inHg , 1019.6 hPa
Clouds: Clear
Visibility: 10 miles , 16 km
2020/07/06 19:56 KRKD 061956Z AUTO 17008KT 10SM CLR 18/14 A3011 RMK AO2 SLP197 T01780139
 
KAUG - Augusta, Maine, USA
Distance from station: SW 55mi, 89km
Updated: Mon, 06-Jul-2020 3:53pm EDT
Partly cloudy
Partly cloudy
 Wind from ESE
Wind: ESE 6 mph , 9 km/h
Temperature: 75°F , 24°C
Dew Point: 57°F , 14°C
Humidity: 54%
Barometer: 30.09 inHg , 1019 hPa
Clouds: Partly cloudy
Visibility: 10 miles , 16 km
Cloud details: Few Clouds 4300 ft
Partly cloudy 5000 ft
2020/07/06 19:53 KAUG 061953Z AUTO 12005KT 10SM FEW043 SCT050 24/14 A3009 RMK AO2 SLP189 T02390139
KGNR - Greenville, Maine, USA
Distance from station: NW 55mi, 89km
Updated: Mon, 06-Jul-2020 3:56pm EDT

 Wind from N
Wind: N 9 mph , 15 km/h
Temperature: 72°F , 22°C
Dew Point: 50°F , 10°C
Humidity: 47%
Barometer: 30.09 inHg , 1019 hPa
2020/07/06 19:56 KGNR 061956Z AUTO 35008KT 22/10 A3009 RMK AO1 SLP189 T02220100
 
KMLT - Millinocket, Maine, USA
Distance from station: N 59mi, 95km
Updated: Mon, 06-Jul-2020 3:53pm EDT
Overcast
Overcast
 Wind from NNE
Wind: NNE 3 mph , 6 km/h
Temperature: 73°F , 23°C
Dew Point: 50°F , 10°C
Humidity: 44%
Barometer: 30.09 inHg , 1019 hPa
Clouds: Overcast
Visibility: 10 miles , 16 km
Cloud details: Overcast 6000 ft
2020/07/06 19:53 KMLT 061953Z AUTO 03003KT 10SM OVC060 23/10 A3009 RMK AO2 SLP193 T02330100
KIWI - Wiscasset, Maine, USA
Distance from station: SW 70mi, 113km
Updated: Mon, 06-Jul-2020 3:53pm EDT
Clear
Clear
 Wind from S
Wind: S 9 mph , 15 km/h
Temperature: 70°F , 21°C
Dew Point: 57°F , 14°C
Humidity: 64%
Barometer: 30.12 inHg , 1020 hPa
Clouds: Clear
Visibility: 10 miles , 16 km
2020/07/06 19:53 KIWI 061953Z AUTO 19008KT 10SM CLR 21/14 A3012 RMK AO2 SLP199 T02060139
 
CWSS - St. Stephen (mar, New Brunswick, Canada
Distance from station: ENE 86mi, 138km
Updated: Thu, 19-Dec-2019 6:00pm EST
NOT Current

 Wind from W
Wind: W 9 mph , 15 km/h
Temperature: 9°F , -13°C
Wind Chill: -4°F , -20°C
Dew Point: -4°F , -20°C
Humidity: 56%
2019/12/19 23:00 CWSS 192300Z AUTO 27008KT M13/M20 RMK AO1 PK WND 26017/2228 SLP131 T11341199 51023
KLEW - Auburn/Lewiston, Maine, USA
Distance from station: SW 86mi, 138km
Updated: Mon, 06-Jul-2020 3:56pm EDT
Few Clouds
Few Clouds
 Wind from S
Wind: S 10 mph , 17 km/h, Gust: 17 mph , 28 km/h
Temperature: 72°F , 22°C
Dew Point: 63°F , 17°C
Humidity: 73%
Barometer: 30.09 inHg , 1019 hPa
Clouds: Few Clouds
Visibility: 10 miles , 16 km
Cloud details: Few Clouds 10000 ft
2020/07/06 19:56 KLEW 061956Z AUTO 17009G15KT 10SM FEW100 22/17 A3009 RMK AO2 SLP196 T02170167
 
KHUL - Houlton, Maine, USA
Distance from station: NNE 105mi, 169km
Updated: Mon, 06-Jul-2020 3:53pm EDT
Clear
Clear
 Wind from NNE
Wind: NNE 8 mph , 13 km/h
Temperature: 73°F , 23°C
Dew Point: 54°F , 12°C
Humidity: 50%
Barometer: 30.07 inHg , 1018.3 hPa
Clouds: Clear
Visibility: 10 miles , 16 km
2020/07/06 19:53 KHUL 061953Z AUTO 02007KT 10SM CLR 23/12 A3007 RMK AO2 SLP182 T02280117
KPWM - Portland, Maine, USA
Distance from station: SW 105mi, 170km
Updated: Mon, 06-Jul-2020 3:51pm EDT
Few Clouds
Few Clouds
 Wind from S
Wind: S 10 mph , 17 km/h
Temperature: 72°F , 22°C
Dew Point: 57°F , 14°C
Humidity: 61%
Barometer: 30.11 inHg , 1019.6 hPa
Clouds: Few Clouds
Visibility: 10 miles , 16 km
Cloud details: Few Clouds 3000 ft
2020/07/06 19:51 KPWM 061951Z 17009KT 10SM FEW030 22/14 A3011 RMK AO2 SLP197 T02170144
 
KBML - Berlin, New Hampshire, USA
Distance from station: W 113mi, 181km
Updated: Mon, 06-Jul-2020 3:52pm EDT
Partly cloudy
Partly cloudy
 Wind from NW
Wind: NW 8 mph , 13 km/h
Temperature: 82°F , 28°C
Dew Point: 50°F , 10°C
Humidity: 32%
Barometer: 30.10 inHg , 1019.3 hPa
Clouds: Partly cloudy
Visibility: 10 miles , 16 km
Cloud details: Partly cloudy 9500 ft
2020/07/06 19:52 KBML 061952Z AUTO 32007KT 10SM SCT095 28/10 A3010 RMK AO2 SLP189 T02830100
KIZG - Fryeburg, Maine, USA
Distance from station: WSW 116mi, 186km
Updated: Mon, 06-Jul-2020 3:54pm EDT
Partly cloudy
Partly cloudy
 Wind from calm
Wind: Calm
Temperature: 84°F , 29°C
Dew Point: 52°F , 11°C
Humidity: 33%
Barometer: 30.07 inHg , 1018.3 hPa
Clouds: Partly cloudy
Visibility: 10 miles , 16 km
Cloud details: Partly cloudy 10000 ft
2020/07/06 19:54 KIZG 061954Z AUTO 00000KT 10SM SCT100 29/11 A3007 RMK AO2 SLP179 T02890106
 
CWPE - Point Lepreau, New Brunswick, Canada
Distance from station: E 121mi, 195km
Updated: Mon, 06-Jul-2020 4:00pm EDT

 Wind from S
Wind: S 7 mph , 11 km/h
Temperature: 61°F , 16°C
Dew Point: 57°F , 14°C
Humidity: 88%
2020/07/06 20:00 CWPE 062000Z AUTO 18006KT 16/14 RMK AO1 SLP194 T01610143 55001
KMWN - Mount Washington, New Hampshire, USA
Distance from station: WSW 123mi, 198km
Updated: Mon, 06-Jul-2020 3:59pm EDT
Mostly cloudy
Mostly cloudy
 Wind from NW
Wind: NW 16 mph , 26 km/h
Temperature: 57°F , 14°C
Dew Point: 41°F , 5°C
Humidity: 55%
Clouds: Mostly cloudy
Visibility: 80 miles , 128 km
Cloud details: Mostly cloudy 1000 ft
Mostly cloudy 2500 ft
Mostly cloudy 18000 ft
2020/07/06 19:59 KMWN 061959Z 32014KT 80SM BKN010 BKN025 BKN180 14/05 RMK
 
KPQI - Presque Isle, Maine, USA
Distance from station: ESE 136mi, 219km
Updated: Mon, 06-Jul-2020 3:56pm EDT
Clear
Clear
 Wind from NW
Wind: NW 7 mph , 11 km/h
Temperature: 73°F , 23°C
Dew Point: 55°F , 13°C
Humidity: 53%
Barometer: 30.10 inHg , 1019.3 hPa
Clouds: Clear
Visibility: 10 miles , 16 km
2020/07/06 19:56 KPQI 061956Z AUTO 32006KT 10SM CLR 23/13 A3010 RMK AO2 SLP216 T02280128
KCAR - Caribou, Maine, USA
Distance from station: NNE 148mi, 238km
Updated: Mon, 06-Jul-2020 3:54pm EDT
Mostly cloudy
Mostly cloudy
 Wind from WNW
Wind: WNW 5 mph , 7 km/h
Temperature: 73°F , 23°C
Dew Point: 52°F , 11°C
Humidity: 47%
Barometer: 30.08 inHg , 1018.6 hPa
Clouds: Mostly cloudy
Visibility: 10 miles , 16 km
Cloud details: Mostly cloudy 9000 ft
2020/07/06 19:54 KCAR 061954Z AUTO 30004KT 10SM BKN090 23/11 A3008 RMK AO2 SLP189 T02280106